createdAt,value
2019-05-17T00:02:30.500Z,18.70
2019-05-17T00:05:06.877Z,18.70
2019-05-17T00:07:39.546Z,18.70
2019-05-17T00:10:17.016Z,18.60
2019-05-17T00:12:49.082Z,18.60
2019-05-17T00:15:21.079Z,18.50
2019-05-17T00:17:53.969Z,18.60
2019-05-17T00:20:32.099Z,18.50
2019-05-17T00:23:06.983Z,18.50
2019-05-17T00:25:41.279Z,18.50
2019-05-17T00:28:13.523Z,18.50
2019-05-17T00:30:50.087Z,18.50
2019-05-17T00:33:22.515Z,18.40
2019-05-17T00:35:56.291Z,18.40
2019-05-17T00:38:30.998Z,18.40
2019-05-17T00:41:07.181Z,18.40
2019-05-17T00:43:38.757Z,18.30
2019-05-17T00:46:11.102Z,18.30
2019-05-17T00:48:46.624Z,18.30
2019-05-17T00:51:19.571Z,18.30
2019-05-17T00:53:50.943Z,18.30
2019-05-17T00:56:22.823Z,18.30
2019-05-17T00:58:57.666Z,18.30
2019-05-17T01:01:30.435Z,18.40
2019-05-17T01:04:03.219Z,18.40
2019-05-17T01:06:37.526Z,18.40
2019-05-17T01:09:10.480Z,18.40
2019-05-17T01:11:44.227Z,18.40
2019-05-17T01:14:17.610Z,18.50
2019-05-17T01:19:20.902Z,18.50
2019-05-17T01:21:58.179Z,18.50
2019-05-17T01:27:00.840Z,18.40
2019-05-17T01:29:33.246Z,18.40
2019-05-17T01:32:06.760Z,18.40
2019-05-17T01:34:41.114Z,18.30
2019-05-17T01:37:17.172Z,18.30
2019-05-17T01:39:52.225Z,18.20
2019-05-17T01:42:29.185Z,18.10
2019-05-17T01:45:01.147Z,18.10
2019-05-17T01:47:33.630Z,18.20
2019-05-17T01:50:07.577Z,18.20
2019-05-17T01:52:40.598Z,18.10
2019-05-17T01:55:12.926Z,18.10
2019-05-17T01:57:47.382Z,18.20
2019-05-17T02:00:31.009Z,18.10
2019-05-17T02:03:03.898Z,17.90
2019-05-17T02:05:37.290Z,18.00
2019-05-17T02:08:10.622Z,17.90
2019-05-17T02:10:42.500Z,17.90
2019-05-17T02:13:16.423Z,17.80
2019-05-17T02:15:48.974Z,17.70
2019-05-17T02:18:21.791Z,17.70
2019-05-17T02:20:53.729Z,17.60
2019-05-17T02:23:27.018Z,17.40
2019-05-17T02:26:00.510Z,17.40
2019-05-17T02:28:33.235Z,17.30
2019-05-17T02:31:06.341Z,17.40
2019-05-17T02:33:42.779Z,17.40
2019-05-17T02:36:14.185Z,17.40
2019-05-17T02:38:46.454Z,17.30
2019-05-17T02:41:22.745Z,17.20
2019-05-17T02:43:53.880Z,17.20
2019-05-17T02:46:26.695Z,17.20
2019-05-17T02:49:03.185Z,17.20
2019-05-17T02:51:34.693Z,17.10
2019-05-17T02:54:08.219Z,17.00
2019-05-17T02:56:43.650Z,17.00
2019-05-17T02:59:14.661Z,17.00
2019-05-17T03:01:46.755Z,17.00
2019-05-17T03:04:19.523Z,17.00
2019-05-17T03:06:53.302Z,16.90
2019-05-17T03:09:25.872Z,17.00
2019-05-17T03:11:57.760Z,17.00
2019-05-17T03:14:32.750Z,17.00
2019-05-17T03:17:04.169Z,17.00
2019-05-17T03:19:35.702Z,17.00
2019-05-17T03:22:08.069Z,16.90
2019-05-17T03:24:39.837Z,16.90
2019-05-17T03:27:13.420Z,16.90
2019-05-17T03:29:45.159Z,16.90
2019-05-17T03:32:18.191Z,16.90
2019-05-17T03:34:56.153Z,17.00
2019-05-17T03:37:30.098Z,17.00
2019-05-17T03:39:58.299Z,17.10
2019-05-17T03:42:33.087Z,17.20
2019-05-17T03:45:05.271Z,17.40
2019-05-17T03:47:37.842Z,17.50
2019-05-17T03:50:13.415Z,17.60
2019-05-17T03:52:47.199Z,17.60
2019-05-17T03:55:18.579Z,17.70
2019-05-17T03:57:53.231Z,17.80
2019-05-17T04:00:26.072Z,17.70
2019-05-17T04:03:08.913Z,17.80
2019-05-17T04:05:42.901Z,17.70
2019-05-17T04:08:14.421Z,17.70
2019-05-17T04:10:46.781Z,17.60
2019-05-17T04:13:23.425Z,17.70
2019-05-17T04:15:55.932Z,17.80
2019-05-17T04:18:28.158Z,17.90
2019-05-17T04:21:03.487Z,18.00
2019-05-17T04:23:35.170Z,18.00
2019-05-17T04:26:07.562Z,18.10
2019-05-17T04:28:44.059Z,18.20
2019-05-17T04:31:15.279Z,18.10
2019-05-17T04:33:48.833Z,18.20
2019-05-17T04:36:22.508Z,18.30
2019-05-17T04:38:54.776Z,18.50
2019-05-17T04:41:41.490Z,18.60
2019-05-17T04:44:02.883Z,18.70
2019-05-17T04:46:34.883Z,18.90
2019-05-17T04:49:07.424Z,19.00
2019-05-17T04:51:43.510Z,19.10
2019-05-17T04:54:15.613Z,19.20
2019-05-17T04:56:47.738Z,19.20
2019-05-17T04:59:24.317Z,19.20
2019-05-17T05:01:56.297Z,19.10
2019-05-17T05:04:28.233Z,19.10
2019-05-17T05:07:02.903Z,19.20
2019-05-17T05:09:33.300Z,19.00
2019-05-17T05:12:06.602Z,18.90
2019-05-17T05:14:39.065Z,18.80
2019-05-17T05:17:12.766Z,18.70
2019-05-17T05:19:44.321Z,18.70
2019-05-17T05:22:17.567Z,18.60
2019-05-17T05:24:52.361Z,18.60
2019-05-17T05:27:23.786Z,18.70
2019-05-17T05:29:55.300Z,18.90
2019-05-17T05:32:28.448Z,19.00
2019-05-17T05:35:03.104Z,19.20
2019-05-17T05:37:36.286Z,19.30
2019-05-17T05:40:07.987Z,19.50
2019-05-17T05:42:42.258Z,19.50
2019-05-17T05:45:14.931Z,19.70
2019-05-17T05:47:47.867Z,19.80
2019-05-17T05:50:21.863Z,19.50
2019-05-17T05:52:54.329Z,19.50
2019-05-17T05:55:27.360Z,19.60
2019-05-17T05:58:04.609Z,19.70
2019-05-17T06:00:38.551Z,19.70
2019-05-17T06:03:12.086Z,19.80
2019-05-17T06:05:44.852Z,19.70
2019-05-17T06:08:28.474Z,19.50
2019-05-17T06:11:02.507Z,19.50
2019-05-17T06:13:35.863Z,19.50
2019-05-17T06:16:08.612Z,19.80
2019-05-17T06:18:42.549Z,20.20
2019-05-17T06:21:19.688Z,21.00
2019-05-17T06:23:52.436Z,21.70
2019-05-17T06:26:26.420Z,21.70
2019-05-17T06:28:59.084Z,21.80
2019-05-17T06:31:33.294Z,21.80
2019-05-17T06:34:05.589Z,21.80
2019-05-17T06:36:38.039Z,22.00
2019-05-17T06:39:11.732Z,22.20
2019-05-17T06:41:43.757Z,22.60
2019-05-17T06:44:16.254Z,22.60
2019-05-17T06:46:51.914Z,22.80
2019-05-17T06:49:24.147Z,22.70
2019-05-17T06:51:56.691Z,22.30
2019-05-17T06:54:32.687Z,22.30
2019-05-17T06:57:05.667Z,22.40
2019-05-17T06:59:37.634Z,22.30
2019-05-17T07:02:10.720Z,22.10
2019-05-17T07:04:43.854Z,22.10
2019-05-17T07:07:30.739Z,22.00
2019-05-17T07:10:06.790Z,22.30
2019-05-17T07:12:54.406Z,22.50
2019-05-17T07:15:16.412Z,22.70
2019-05-17T07:17:50.405Z,23.10
2019-05-17T07:20:25.567Z,23.20
2019-05-17T07:23:00.624Z,23.30
2019-05-17T07:25:35.199Z,23.00
2019-05-17T07:28:10.171Z,23.70
2019-05-17T07:30:42.799Z,23.90
2019-05-17T07:33:15.074Z,23.80
2019-05-17T07:35:50.221Z,24.00
2019-05-17T07:38:22.270Z,24.00
2019-05-17T07:40:56.602Z,24.20
2019-05-17T07:43:29.803Z,24.40
2019-05-17T07:46:01.996Z,24.60
2019-05-17T07:48:34.730Z,25.30
2019-05-17T07:51:09.970Z,25.40
2019-05-17T07:53:42.334Z,25.30
2019-05-17T07:56:16.032Z,25.00
2019-05-17T07:58:49.368Z,24.60
2019-05-17T08:01:22.499Z,24.20
2019-05-17T08:03:55.394Z,24.00
2019-05-17T08:06:30.534Z,24.20
2019-05-17T08:09:04.375Z,24.20
2019-05-17T08:11:39.683Z,24.00
2019-05-17T08:14:29.441Z,24.00
2019-05-17T08:16:55.575Z,24.40
2019-05-17T08:19:40.133Z,24.80
2019-05-17T08:22:16.397Z,24.60
2019-05-17T08:24:50.757Z,24.30
2019-05-17T08:27:24.651Z,24.30
2019-05-17T08:30:00.072Z,24.20
2019-05-17T08:32:32.607Z,24.10
2019-05-17T08:35:10.470Z,24.20
2019-05-17T08:37:44.614Z,24.30
2019-05-17T08:40:19.995Z,24.20
2019-05-17T08:42:57.284Z,24.10
2019-05-17T08:45:35.958Z,24.00
2019-05-17T08:48:10.623Z,23.80
2019-05-17T08:50:44.969Z,23.50
2019-05-17T08:53:21.123Z,23.40
2019-05-17T08:55:54.263Z,23.20
2019-05-17T08:58:26.908Z,23.10
2019-05-17T09:01:00.609Z,22.80
2019-05-17T09:03:32.533Z,22.50
2019-05-17T09:06:04.357Z,22.50
2019-05-17T09:08:40.496Z,22.10
2019-05-17T09:11:13.910Z,22.00
2019-05-17T09:13:57.225Z,22.00
2019-05-17T09:16:20.719Z,21.80
2019-05-17T09:18:54.594Z,21.50
2019-05-17T09:21:31.428Z,21.40
2019-05-17T09:24:04.095Z,21.40
2019-05-17T09:26:40.014Z,21.50
2019-05-17T09:29:13.107Z,21.30
2019-05-17T09:31:50.371Z,21.30
2019-05-17T09:34:21.954Z,21.60
2019-05-17T09:37:09.735Z,21.90
2019-05-17T09:39:44.431Z,21.80
2019-05-17T09:42:16.751Z,21.60
2019-05-17T09:44:49.747Z,21.50
2019-05-17T09:47:21.384Z,21.20
2019-05-17T09:49:54.562Z,20.90
2019-05-17T09:52:29.324Z,20.80
2019-05-17T09:55:02.614Z,21.00
2019-05-17T09:57:37.121Z,21.10
2019-05-17T10:00:11.008Z,21.40
2019-05-17T10:02:43.898Z,21.60
2019-05-17T10:05:16.585Z,21.70
2019-05-17T10:07:50.726Z,21.70
2019-05-17T10:10:26.303Z,21.80
2019-05-17T10:13:00.295Z,21.70
2019-05-17T10:15:34.450Z,21.80
2019-05-17T10:18:11.178Z,21.80
2019-05-17T10:20:44.024Z,21.80
2019-05-17T10:23:19.524Z,21.70
2019-05-17T10:25:52.682Z,21.70
2019-05-17T10:28:29.101Z,21.80
2019-05-17T10:31:02.455Z,21.90
2019-05-17T10:33:35.990Z,21.80
2019-05-17T10:36:09.080Z,22.00
2019-05-17T10:38:41.817Z,21.80
2019-05-17T10:41:14.338Z,21.60
2019-05-17T10:43:49.911Z,21.50
2019-05-17T10:46:22.289Z,21.60
2019-05-17T10:48:54.281Z,22.00
2019-05-17T10:51:26.810Z,22.90
2019-05-17T10:54:00.467Z,23.30
2019-05-17T10:56:34.822Z,23.50
2019-05-17T10:59:09.870Z,23.90
2019-05-17T11:01:43.350Z,23.80
2019-05-17T11:04:19.755Z,23.50
2019-05-17T11:06:54.295Z,23.10
2019-05-17T11:09:27.574Z,22.90
2019-05-17T11:11:59.965Z,23.00
2019-05-17T11:14:33.036Z,23.20
2019-05-17T11:17:11.049Z,22.80
2019-05-17T11:19:44.498Z,23.20
2019-05-17T11:22:17.594Z,23.70
2019-05-17T11:24:50.986Z,23.50
2019-05-17T11:27:23.823Z,24.30
2019-05-17T11:29:57.030Z,24.10
2019-05-17T11:32:29.928Z,24.20
2019-05-17T11:35:02.742Z,23.90
2019-05-17T11:37:36.721Z,24.00
2019-05-17T11:40:12.775Z,23.60
2019-05-17T11:42:47.650Z,23.60
2019-05-17T11:45:32.712Z,23.60
2019-05-17T11:48:05.718Z,23.40
2019-05-17T11:50:38.418Z,23.20
2019-05-17T11:53:11.011Z,23.10
2019-05-17T11:55:45.601Z,23.00
2019-05-17T11:58:18.949Z,23.20
2019-05-17T12:00:51.403Z,23.20
2019-05-17T12:03:26.691Z,23.00
2019-05-17T12:05:58.834Z,22.80
2019-05-17T12:08:32.449Z,22.80
2019-05-17T12:11:05.435Z,22.90
2019-05-17T12:13:37.250Z,22.90
2019-05-17T12:16:10.613Z,22.80
2019-05-17T12:18:46.414Z,22.70
2019-05-17T12:21:22.206Z,22.70
2019-05-17T12:23:54.503Z,22.60
2019-05-17T12:26:27.203Z,22.40
2019-05-17T12:29:00.528Z,22.30
2019-05-17T12:31:33.003Z,22.10
2019-05-17T12:34:08.011Z,22.00
2019-05-17T12:36:41.048Z,22.00
2019-05-17T12:39:13.854Z,21.90
2019-05-17T12:41:46.832Z,21.80
2019-05-17T12:44:20.000Z,21.90
2019-05-17T12:46:54.203Z,22.00
2019-05-17T12:49:27.810Z,22.10
2019-05-17T12:52:02.910Z,22.10
2019-05-17T12:54:36.704Z,22.20
2019-05-17T12:57:09.629Z,22.40
2019-05-17T12:59:42.210Z,22.40
2019-05-17T13:02:14.660Z,22.40
2019-05-17T13:04:48.224Z,22.30
2019-05-17T13:07:21.765Z,22.20
2019-05-17T13:09:55.141Z,22.10
2019-05-17T13:12:28.223Z,21.00
2019-05-17T13:15:03.007Z,20.60
2019-05-17T13:17:37.308Z,20.50
2019-05-17T13:20:09.921Z,20.50
2019-05-17T13:22:45.391Z,20.50
2019-05-17T13:25:18.549Z,20.50
2019-05-17T13:27:54.255Z,20.60
2019-05-17T13:30:27.899Z,20.60
2019-05-17T13:33:02.462Z,20.50
2019-05-17T13:35:35.395Z,20.50
2019-05-17T13:38:09.645Z,20.30
2019-05-17T13:40:43.909Z,20.20
2019-05-17T13:43:18.417Z,20.10
2019-05-17T13:45:51.873Z,20.00
2019-05-17T13:48:24.094Z,20.00
2019-05-17T13:50:58.560Z,20.00
2019-05-17T13:53:31.163Z,19.90
2019-05-17T13:56:04.991Z,20.00
2019-05-17T13:58:37.901Z,19.90
2019-05-17T14:01:11.759Z,20.00
2019-05-17T14:03:46.595Z,20.10
2019-05-17T14:06:24.131Z,20.30
2019-05-17T14:11:27.842Z,20.50
2019-05-17T14:19:05.673Z,20.70
2019-05-17T14:21:38.828Z,20.90
2019-05-17T14:24:13.931Z,20.90
2019-05-17T14:26:48.102Z,21.20
2019-05-17T14:29:22.349Z,21.30
2019-05-17T14:32:00.284Z,21.70
2019-05-17T14:34:39.643Z,21.70
2019-05-17T14:37:13.969Z,21.80
2019-05-17T14:39:46.854Z,21.70
2019-05-17T14:42:20.615Z,21.90
2019-05-17T14:44:58.403Z,22.20
2019-05-17T14:47:33.572Z,22.20
2019-05-17T14:50:06.627Z,22.10
2019-05-17T14:52:42.826Z,22.20
2019-05-17T14:55:19.294Z,22.20
2019-05-17T14:57:52.282Z,22.60
2019-05-17T15:00:26.031Z,22.70
2019-05-17T15:02:58.457Z,22.60
2019-05-17T15:05:30.284Z,22.20
2019-05-17T15:08:02.958Z,22.00
2019-05-17T15:10:36.850Z,21.80
2019-05-17T15:13:14.564Z,21.60
2019-05-17T15:15:48.118Z,21.40
2019-05-17T15:18:20.687Z,21.40
2019-05-17T15:20:54.885Z,21.20
2019-05-17T15:23:38.716Z,21.10
2019-05-17T15:26:12.323Z,21.10
2019-05-17T15:28:44.384Z,21.00
2019-05-17T15:31:17.353Z,20.90
2019-05-17T15:33:50.661Z,20.90
2019-05-17T15:36:25.488Z,20.60
2019-05-17T15:38:59.839Z,20.50
2019-05-17T15:41:33.605Z,20.40
2019-05-17T15:44:07.399Z,20.30
2019-05-17T15:46:41.224Z,20.20
2019-05-17T15:49:15.071Z,20.20
2019-05-17T15:51:48.070Z,20.10
2019-05-17T15:54:21.642Z,20.00
2019-05-17T15:56:56.108Z,19.90
2019-05-17T15:59:30.014Z,19.80
2019-05-17T16:02:05.472Z,19.80
2019-05-17T16:04:38.719Z,19.70
2019-05-17T16:07:14.340Z,19.60
2019-05-17T16:09:47.604Z,19.50
2019-05-17T16:12:21.916Z,19.50
2019-05-17T16:14:55.213Z,19.50
2019-05-17T16:17:28.350Z,19.30
2019-05-17T16:20:01.733Z,19.20
2019-05-17T16:22:35.823Z,19.20
2019-05-17T16:25:09.534Z,19.10
2019-05-17T16:27:43.427Z,19.10
2019-05-17T16:30:17.738Z,19.00
2019-05-17T16:32:51.394Z,18.90
2019-05-17T16:35:25.187Z,18.70
2019-05-17T16:37:59.181Z,18.80
2019-05-17T16:40:31.618Z,18.80
2019-05-17T16:43:17.782Z,18.80
2019-05-17T16:45:42.666Z,18.70
2019-05-17T16:48:16.443Z,18.70
2019-05-17T16:50:51.782Z,18.70
2019-05-17T16:53:25.007Z,18.70
2019-05-17T16:55:57.858Z,18.70
2019-05-17T16:58:31.781Z,18.70
2019-05-17T17:01:03.918Z,18.60
2019-05-17T17:03:44.418Z,18.60
2019-05-17T17:06:12.144Z,18.50
2019-05-17T17:08:45.927Z,18.50
2019-05-17T17:11:20.123Z,18.50
2019-05-17T17:13:53.568Z,18.40
2019-05-17T17:16:26.355Z,18.40
2019-05-17T17:18:59.141Z,18.30
2019-05-17T17:21:31.503Z,18.30
2019-05-17T17:24:04.349Z,18.30
2019-05-17T17:26:38.625Z,18.10
2019-05-17T17:29:11.645Z,17.90
2019-05-17T17:31:44.918Z,17.80
2019-05-17T17:34:17.291Z,17.80
2019-05-17T17:36:50.394Z,17.80
2019-05-17T17:39:22.829Z,17.90
2019-05-17T17:41:55.446Z,17.90
2019-05-17T17:44:30.182Z,17.80
2019-05-17T17:47:02.633Z,17.80
2019-05-17T17:49:36.673Z,17.80
2019-05-17T17:52:09.653Z,17.80
2019-05-17T17:54:42.889Z,17.70
2019-05-17T17:57:15.646Z,17.80
2019-05-17T17:59:48.463Z,17.80
2019-05-17T18:02:22.702Z,17.60
2019-05-17T18:04:55.667Z,17.60
2019-05-17T18:07:29.955Z,17.50
2019-05-17T18:10:02.835Z,17.50
2019-05-17T18:12:36.710Z,17.50
2019-05-17T18:15:11.785Z,17.60
2019-05-17T18:17:45.373Z,17.50
2019-05-17T18:20:19.069Z,17.60
2019-05-17T18:22:53.020Z,17.60
2019-05-17T18:25:27.934Z,17.50
2019-05-17T18:28:00.704Z,17.50
2019-05-17T18:30:33.195Z,17.50
2019-05-17T18:33:05.227Z,17.40
2019-05-17T18:35:39.391Z,17.30
2019-05-17T18:38:11.968Z,17.30
2019-05-17T18:40:45.167Z,17.30
2019-05-17T18:43:19.845Z,17.30
2019-05-17T18:45:53.976Z,17.30
2019-05-17T18:48:27.249Z,17.40
2019-05-17T18:51:01.317Z,17.30
2019-05-17T18:53:33.913Z,17.20
2019-05-17T18:56:07.290Z,17.10
2019-05-17T18:58:40.382Z,17.10
2019-05-17T19:01:13.708Z,17.20
2019-05-17T19:03:46.227Z,17.30
2019-05-17T19:06:19.005Z,17.30
2019-05-17T19:08:51.918Z,17.40
2019-05-17T19:11:26.044Z,17.40
2019-05-17T19:14:00.002Z,17.40
2019-05-17T19:16:33.013Z,17.40
2019-05-17T19:19:05.831Z,17.50
2019-05-17T19:21:39.740Z,17.40
2019-05-17T19:24:13.575Z,17.40
2019-05-17T19:26:49.212Z,17.30
2019-05-17T19:29:23.437Z,17.30
2019-05-17T19:31:57.402Z,17.20
2019-05-17T19:34:32.589Z,17.20
2019-05-17T19:37:06.159Z,17.20
2019-05-17T19:39:40.892Z,17.20
2019-05-17T19:42:13.761Z,17.20
2019-05-17T19:44:58.633Z,17.20
2019-05-17T19:47:23.133Z,17.20
2019-05-17T19:49:57.191Z,17.20
2019-05-17T19:52:32.769Z,17.30
2019-05-17T19:55:07.450Z,17.20
2019-05-17T19:57:41.407Z,17.20
2019-05-17T20:00:35.966Z,17.20
2019-05-17T20:03:08.918Z,17.30
2019-05-17T20:05:41.809Z,17.30
2019-05-17T20:08:15.587Z,17.30
2019-05-17T20:10:51.658Z,17.30
2019-05-17T20:13:26.943Z,17.30
2019-05-17T20:16:00.296Z,17.40
2019-05-17T20:18:33.815Z,17.30
2019-05-17T20:21:05.725Z,17.20
2019-05-17T20:23:38.198Z,17.30
2019-05-17T20:26:11.597Z,17.40
2019-05-17T20:28:45.447Z,17.40
2019-05-17T20:31:18.316Z,17.40
2019-05-17T20:33:53.323Z,17.40
2019-05-17T20:36:26.254Z,17.40
2019-05-17T20:38:59.865Z,17.40
2019-05-17T20:41:33.925Z,17.40
2019-05-17T20:44:08.233Z,17.50
2019-05-17T20:46:42.631Z,17.40
2019-05-17T20:49:15.302Z,17.50
2019-05-17T20:51:51.151Z,17.50
2019-05-17T20:54:24.486Z,17.40
2019-05-17T20:56:57.939Z,17.40
2019-05-17T20:59:33.333Z,17.30
2019-05-17T21:02:05.851Z,17.30
2019-05-17T21:04:38.981Z,17.30
2019-05-17T21:07:14.071Z,17.20
2019-05-17T21:09:51.930Z,17.20
2019-05-17T21:12:25.178Z,17.20
2019-05-17T21:14:58.871Z,17.10
2019-05-17T21:17:32.581Z,17.10
2019-05-17T21:20:06.395Z,17.10
2019-05-17T21:22:38.794Z,17.00
2019-05-17T21:25:13.375Z,17.00
2019-05-17T21:27:46.659Z,16.90
2019-05-17T21:30:20.680Z,17.00
2019-05-17T21:32:53.344Z,16.90
2019-05-17T21:35:25.816Z,16.90
2019-05-17T21:38:03.008Z,16.90
2019-05-17T21:40:36.205Z,16.90
2019-05-17T21:43:09.338Z,16.90
2019-05-17T21:45:42.291Z,16.90
2019-05-17T21:48:16.096Z,16.90
2019-05-17T21:50:48.719Z,16.90
2019-05-17T21:53:22.846Z,16.80
2019-05-17T21:55:57.623Z,16.80
2019-05-17T21:58:33.078Z,16.80
2019-05-17T22:01:13.673Z,16.80
2019-05-17T22:03:56.318Z,16.80
2019-05-17T22:06:29.045Z,16.70
2019-05-17T22:09:02.427Z,16.80
2019-05-17T22:11:39.686Z,16.80
2019-05-17T22:14:11.763Z,16.80
2019-05-17T22:16:45.444Z,16.80
2019-05-17T22:19:19.807Z,16.70
2019-05-17T22:21:52.479Z,16.60
2019-05-17T22:24:25.679Z,16.60
2019-05-17T22:26:58.915Z,16.60
2019-05-17T22:29:32.153Z,16.60
2019-05-17T22:32:05.209Z,16.50
2019-05-17T22:34:38.986Z,16.50
2019-05-17T22:37:11.382Z,16.50
2019-05-17T22:39:44.731Z,16.40
2019-05-17T22:42:18.099Z,16.40
2019-05-17T22:44:52.870Z,16.40
2019-05-17T22:47:26.646Z,16.40
2019-05-17T22:49:59.935Z,16.30
2019-05-17T22:52:33.147Z,16.20
2019-05-17T22:55:06.166Z,16.30
2019-05-17T22:57:39.081Z,16.20
2019-05-17T23:00:13.091Z,16.20
2019-05-17T23:02:47.138Z,16.20
2019-05-17T23:05:25.863Z,16.30
2019-05-17T23:07:54.796Z,16.30
2019-05-17T23:10:27.907Z,16.30
2019-05-17T23:13:02.234Z,16.30
2019-05-17T23:15:55.362Z,16.20
2019-05-17T23:18:27.403Z,16.30
2019-05-17T23:21:00.327Z,16.30
2019-05-17T23:23:32.324Z,16.30
2019-05-17T23:26:05.731Z,16.20
2019-05-17T23:28:38.515Z,16.20
2019-05-17T23:31:11.494Z,16.20
2019-05-17T23:33:44.146Z,16.20
2019-05-17T23:36:17.953Z,16.10
2019-05-17T23:38:50.950Z,16.10
2019-05-17T23:41:23.772Z,16.20
2019-05-17T23:43:56.919Z,16.10
2019-05-17T23:46:29.604Z,16.00
2019-05-17T23:49:01.791Z,16.00
2019-05-17T23:51:34.216Z,16.00
2019-05-17T23:54:07.343Z,16.10
2019-05-17T23:56:42.133Z,16.10
2019-05-17T23:59:14.072Z,16.20
